Burbank, California
Current Conditions -  °F | °C
As of 3:53 PM on Wednesday 26 Nov 2014 (Local Time) from KBUR Reporting Station
Clear Clear  
Wind Chill: 84°   Ceiling: Unl
Heat Index: 84°   Visibility: 10mi
Dew Point: 25°   Wind: 6mph
Humidity: 12%   Direction: 150°SSE
Pressure: 30.14"   Gusts: NA
Location:  34.18°N, 118.3°W
Report Text: KBUR 262353Z 15005KT 10SM CLR 29/M04 A3014 RMK AO2 SLP194 T02891039 10294 20217 56009
Loading
Personal Weather Stations






























Interactive Weather Map New forecast layout! Learn more

10-Day Weather Forecast

Advertisements
Track Severe Weather on mobile